sensor_id;sensor_type;location;lat;lon;timestamp;P1;durP1;ratioP1;P2;durP2;ratioP2
78891;SDS011;68368;51.728;5.248;2024-01-30T00:00:16;12.00;;;7.70;;
78891;SDS011;68368;51.728;5.248;2024-01-30T00:02:20;14.30;;;7.50;;
78891;SDS011;68368;51.728;5.248;2024-01-30T00:04:22;10.50;;;7.40;;
78891;SDS011;68368;51.728;5.248;2024-01-30T00:06:26;10.20;;;6.90;;
78891;SDS011;68368;51.728;5.248;2024-01-30T00:08:28;11.60;;;7.30;;
78891;SDS011;68368;51.728;5.248;2024-01-30T00:10:32;10.50;;;7.30;;
78891;SDS011;68368;51.728;5.248;2024-01-30T00:12:35;12.90;;;8.30;;
78891;SDS011;68368;51.728;5.248;2024-01-30T00:14:40;14.10;;;8.30;;
78891;SDS011;68368;51.728;5.248;2024-01-30T00:16:44;12.50;;;7.40;;
78891;SDS011;68368;51.728;5.248;2024-01-30T00:18:49;11.60;;;7.50;;
78891;SDS011;68368;51.728;5.248;2024-01-30T00:20:53;11.90;;;7.00;;
78891;SDS011;68368;51.728;5.248;2024-01-30T00:22:56;10.40;;;7.00;;
78891;SDS011;68368;51.728;5.248;2024-01-30T00:25:00;12.50;;;7.90;;
78891;SDS011;68368;51.728;5.248;2024-01-30T00:27:04;13.00;;;7.50;;
78891;SDS011;68368;51.728;5.248;2024-01-30T00:29:07;12.50;;;8.70;;
78891;SDS011;68368;51.728;5.248;2024-01-30T00:31:11;11.00;;;7.70;;
78891;SDS011;68368;51.728;5.248;2024-01-30T00:33:13;12.10;;;7.80;;
78891;SDS011;68368;51.728;5.248;2024-01-30T00:35:16;13.80;;;8.20;;
78891;SDS011;68368;51.728;5.248;2024-01-30T00:37:21;11.90;;;7.50;;
78891;SDS011;68368;51.728;5.248;2024-01-30T00:39:25;14.80;;;8.10;;
78891;SDS011;68368;51.728;5.248;2024-01-30T00:41:28;12.80;;;8.20;;
78891;SDS011;68368;51.728;5.248;2024-01-30T00:43:31;15.40;;;8.40;;
78891;SDS011;68368;51.728;5.248;2024-01-30T00:45:34;12.20;;;8.00;;
78891;SDS011;68368;51.728;5.248;2024-01-30T00:47:37;13.80;;;8.60;;
78891;SDS011;68368;51.728;5.248;2024-01-30T00:49:40;13.20;;;8.20;;
78891;SDS011;68368;51.728;5.248;2024-01-30T00:51:43;13.00;;;8.40;;
78891;SDS011;68368;51.728;5.248;2024-01-30T00:53:48;12.00;;;8.10;;
78891;SDS011;68368;51.728;5.248;2024-01-30T00:55:50;14.40;;;7.30;;
78891;SDS011;68368;51.728;5.248;2024-01-30T00:57:53;12.20;;;7.30;;
78891;SDS011;68368;51.728;5.248;2024-01-30T00:59:57;10.80;;;7.20;;
78891;SDS011;68368;51.728;5.248;2024-01-30T01:02:00;10.60;;;7.20;;
78891;SDS011;68368;51.728;5.248;2024-01-30T01:04:11;11.30;;;7.20;;
78891;SDS011;68368;51.728;5.248;2024-01-30T01:06:14;11.30;;;7.20;;
78891;SDS011;68368;51.728;5.248;2024-01-30T01:08:17;11.10;;;7.70;;
78891;SDS011;68368;51.728;5.248;2024-01-30T01:10:21;13.30;;;7.90;;
78891;SDS011;68368;51.728;5.248;2024-01-30T01:12:26;11.90;;;6.90;;
78891;SDS011;68368;51.728;5.248;2024-01-30T01:14:29;10.20;;;6.80;;
78891;SDS011;68368;51.728;5.248;2024-01-30T01:16:33;12.60;;;7.30;;
78891;SDS011;68368;51.728;5.248;2024-01-30T01:18:36;13.60;;;7.20;;
78891;SDS011;68368;51.728;5.248;2024-01-30T01:20:40;11.00;;;7.40;;
78891;SDS011;68368;51.728;5.248;2024-01-30T01:22:43;11.50;;;6.60;;
78891;SDS011;68368;51.728;5.248;2024-01-30T01:24:48;12.90;;;7.90;;
78891;SDS011;68368;51.728;5.248;2024-01-30T01:26:51;13.30;;;8.30;;
78891;SDS011;68368;51.728;5.248;2024-01-30T01:28:55;10.40;;;7.00;;
78891;SDS011;68368;51.728;5.248;2024-01-30T01:30:58;11.60;;;7.20;;
78891;SDS011;68368;51.728;5.248;2024-01-30T01:33:01;10.90;;;6.50;;
78891;SDS011;68368;51.728;5.248;2024-01-30T01:35:05;10.80;;;7.30;;
78891;SDS011;68368;51.728;5.248;2024-01-30T01:37:09;12.30;;;7.50;;
78891;SDS011;68368;51.728;5.248;2024-01-30T01:39:12;9.80;;;6.20;;
78891;SDS011;68368;51.728;5.248;2024-01-30T01:41:16;11.90;;;7.10;;
78891;SDS011;68368;51.728;5.248;2024-01-30T01:43:18;14.80;;;7.30;;
78891;SDS011;68368;51.728;5.248;2024-01-30T01:45:23;10.20;;;6.40;;
78891;SDS011;68368;51.728;5.248;2024-01-30T01:47:29;10.90;;;6.90;;
78891;SDS011;68368;51.728;5.248;2024-01-30T01:49:34;12.80;;;7.60;;
78891;SDS011;68368;51.728;5.248;2024-01-30T01:51:38;10.60;;;7.90;;
78891;SDS011;68368;51.728;5.248;2024-01-30T01:53:43;10.80;;;7.20;;
78891;SDS011;68368;51.728;5.248;2024-01-30T01:55:46;12.20;;;7.30;;
78891;SDS011;68368;51.728;5.248;2024-01-30T01:57:50;12.70;;;6.90;;
78891;SDS011;68368;51.728;5.248;2024-01-30T01:59:53;10.70;;;6.60;;
78891;SDS011;68368;51.728;5.248;2024-01-30T02:01:57;9.50;;;7.40;;
78891;SDS011;68368;51.728;5.248;2024-01-30T02:04:00;11.50;;;7.00;;
78891;SDS011;68368;51.728;5.248;2024-01-30T02:06:04;10.60;;;7.00;;
78891;SDS011;68368;51.728;5.248;2024-01-30T02:08:07;12.90;;;7.20;;
78891;SDS011;68368;51.728;5.248;2024-01-30T02:10:11;11.20;;;6.20;;
78891;SDS011;68368;51.728;5.248;2024-01-30T02:12:14;11.30;;;7.10;;
78891;SDS011;68368;51.728;5.248;2024-01-30T02:14:18;12.20;;;7.50;;
78891;SDS011;68368;51.728;5.248;2024-01-30T02:16:21;9.70;;;6.60;;
78891;SDS011;68368;51.728;5.248;2024-01-30T02:18:26;9.70;;;6.70;;
78891;SDS011;68368;51.728;5.248;2024-01-30T02:20:30;12.30;;;7.50;;
78891;SDS011;68368;51.728;5.248;2024-01-30T02:22:37;10.70;;;6.60;;
78891;SDS011;68368;51.728;5.248;2024-01-30T02:24:41;10.00;;;6.80;;
78891;SDS011;68368;51.728;5.248;2024-01-30T02:26:44;12.30;;;7.80;;
78891;SDS011;68368;51.728;5.248;2024-01-30T02:28:47;11.40;;;6.50;;
78891;SDS011;68368;51.728;5.248;2024-01-30T02:30:50;13.50;;;8.10;;
78891;SDS011;68368;51.728;5.248;2024-01-30T02:32:53;10.40;;;6.90;;
78891;SDS011;68368;51.728;5.248;2024-01-30T02:34:56;11.00;;;7.60;;
78891;SDS011;68368;51.728;5.248;2024-01-30T02:36:59;11.70;;;7.40;;
78891;SDS011;68368;51.728;5.248;2024-01-30T02:39:02;9.90;;;7.30;;
78891;SDS011;68368;51.728;5.248;2024-01-30T02:41:07;14.10;;;8.50;;
78891;SDS011;68368;51.728;5.248;2024-01-30T02:43:10;11.80;;;7.90;;
78891;SDS011;68368;51.728;5.248;2024-01-30T02:45:14;13.90;;;9.30;;
78891;SDS011;68368;51.728;5.248;2024-01-30T02:47:17;15.10;;;9.20;;
78891;SDS011;68368;51.728;5.248;2024-01-30T02:49:20;14.20;;;9.60;;
78891;SDS011;68368;51.728;5.248;2024-01-30T02:51:26;16.60;;;9.60;;
78891;SDS011;68368;51.728;5.248;2024-01-30T02:53:29;16.80;;;10.50;;
78891;SDS011;68368;51.728;5.248;2024-01-30T02:55:32;15.40;;;10.10;;
78891;SDS011;68368;51.728;5.248;2024-01-30T02:57:36;20.10;;;11.90;;
78891;SDS011;68368;51.728;5.248;2024-01-30T02:59:39;17.20;;;9.80;;
78891;SDS011;68368;51.728;5.248;2024-01-30T03:01:45;17.30;;;10.50;;
78891;SDS011;68368;51.728;5.248;2024-01-30T03:03:47;15.60;;;9.70;;
78891;SDS011;68368;51.728;5.248;2024-01-30T03:05:52;13.50;;;9.20;;
78891;SDS011;68368;51.728;5.248;2024-01-30T03:07:55;16.30;;;10.40;;
78891;SDS011;68368;51.728;5.248;2024-01-30T03:09:58;14.60;;;9.40;;
78891;SDS011;68368;51.728;5.248;2024-01-30T03:12:01;15.30;;;9.30;;
78891;SDS011;68368;51.728;5.248;2024-01-30T03:14:05;13.90;;;9.40;;
78891;SDS011;68368;51.728;5.248;2024-01-30T03:16:08;13.90;;;9.20;;
78891;SDS011;68368;51.728;5.248;2024-01-30T03:18:11;13.70;;;8.60;;
78891;SDS011;68368;51.728;5.248;2024-01-30T03:20:14;12.80;;;8.10;;
78891;SDS011;68368;51.728;5.248;2024-01-30T03:22:18;12.60;;;8.00;;
78891;SDS011;68368;51.728;5.248;2024-01-30T03:24:20;13.80;;;7.90;;
78891;SDS011;68368;51.728;5.248;2024-01-30T03:26:24;10.10;;;7.30;;
78891;SDS011;68368;51.728;5.248;2024-01-30T03:28:27;12.30;;;8.00;;
78891;SDS011;68368;51.728;5.248;2024-01-30T03:30:30;12.70;;;7.80;;
78891;SDS011;68368;51.728;5.248;2024-01-30T03:32:34;10.80;;;7.40;;
78891;SDS011;68368;51.728;5.248;2024-01-30T03:34:38;10.80;;;7.60;;
78891;SDS011;68368;51.728;5.248;2024-01-30T03:36:44;12.40;;;7.90;;
78891;SDS011;68368;51.728;5.248;2024-01-30T03:38:52;11.30;;;7.00;;
78891;SDS011;68368;51.728;5.248;2024-01-30T03:40:56;12.10;;;7.20;;
78891;SDS011;68368;51.728;5.248;2024-01-30T03:43:03;12.00;;;7.20;;
78891;SDS011;68368;51.728;5.248;2024-01-30T03:45:09;10.40;;;6.80;;
78891;SDS011;68368;51.728;5.248;2024-01-30T03:47:12;11.80;;;6.30;;
78891;SDS011;68368;51.728;5.248;2024-01-30T03:49:18;10.50;;;6.30;;
78891;SDS011;68368;51.728;5.248;2024-01-30T03:51:20;8.60;;;6.00;;
78891;SDS011;68368;51.728;5.248;2024-01-30T03:53:26;9.40;;;6.60;;
78891;SDS011;68368;51.728;5.248;2024-01-30T03:55:29;7.80;;;5.70;;
78891;SDS011;68368;51.728;5.248;2024-01-30T03:57:34;9.30;;;6.50;;
78891;SDS011;68368;51.728;5.248;2024-01-30T03:59:36;10.40;;;5.80;;
78891;SDS011;68368;51.728;5.248;2024-01-30T04:01:39;10.20;;;5.90;;
78891;SDS011;68368;51.728;5.248;2024-01-30T04:03:45;8.10;;;5.80;;
78891;SDS011;68368;51.728;5.248;2024-01-30T04:05:48;10.30;;;6.30;;
78891;SDS011;68368;51.728;5.248;2024-01-30T04:07:51;8.60;;;5.70;;
78891;SDS011;68368;51.728;5.248;2024-01-30T04:09:56;10.10;;;6.10;;
78891;SDS011;68368;51.728;5.248;2024-01-30T04:12:01;9.30;;;5.20;;
78891;SDS011;68368;51.728;5.248;2024-01-30T04:14:05;11.80;;;5.80;;
78891;SDS011;68368;51.728;5.248;2024-01-30T04:16:20;10.20;;;5.40;;
78891;SDS011;68368;51.728;5.248;2024-01-30T04:18:23;10.00;;;5.30;;
78891;SDS011;68368;51.728;5.248;2024-01-30T04:20:27;9.40;;;5.00;;
78891;SDS011;68368;51.728;5.248;2024-01-30T04:22:30;9.00;;;5.60;;
78891;SDS011;68368;51.728;5.248;2024-01-30T04:24:34;8.30;;;5.30;;
78891;SDS011;68368;51.728;5.248;2024-01-30T04:26:37;7.50;;;5.60;;
78891;SDS011;68368;51.728;5.248;2024-01-30T04:28:41;8.50;;;5.40;;
78891;SDS011;68368;51.728;5.248;2024-01-30T04:30:46;7.80;;;5.60;;
78891;SDS011;68368;51.728;5.248;2024-01-30T04:32:49;8.90;;;5.80;;
78891;SDS011;68368;51.728;5.248;2024-01-30T04:34:57;8.80;;;4.90;;
78891;SDS011;68368;51.728;5.248;2024-01-30T04:37:00;9.70;;;5.70;;
78891;SDS011;68368;51.728;5.248;2024-01-30T04:39:03;8.40;;;5.50;;
78891;SDS011;68368;51.728;5.248;2024-01-30T04:41:07;9.90;;;5.40;;
78891;SDS011;68368;51.728;5.248;2024-01-30T04:43:10;8.20;;;5.10;;
78891;SDS011;68368;51.728;5.248;2024-01-30T04:45:13;8.00;;;5.10;;
78891;SDS011;68368;51.728;5.248;2024-01-30T04:47:17;9.00;;;5.10;;
78891;SDS011;68368;51.728;5.248;2024-01-30T04:49:20;7.80;;;5.40;;
78891;SDS011;68368;51.728;5.248;2024-01-30T04:51:23;8.30;;;5.00;;
78891;SDS011;68368;51.728;5.248;2024-01-30T04:53:26;10.90;;;5.50;;
78891;SDS011;68368;51.728;5.248;2024-01-30T04:55:29;8.50;;;5.00;;
78891;SDS011;68368;51.728;5.248;2024-01-30T04:57:32;9.00;;;5.60;;
78891;SDS011;68368;51.728;5.248;2024-01-30T04:59:38;9.50;;;5.80;;
78891;SDS011;68368;51.728;5.248;2024-01-30T05:01:42;8.60;;;4.90;;
78891;SDS011;68368;51.728;5.248;2024-01-30T05:03:45;7.40;;;4.70;;
78891;SDS011;68368;51.728;5.248;2024-01-30T05:05:50;9.10;;;5.40;;
78891;SDS011;68368;51.728;5.248;2024-01-30T05:07:54;9.00;;;5.00;;
78891;SDS011;68368;51.728;5.248;2024-01-30T05:09:59;8.90;;;5.40;;
78891;SDS011;68368;51.728;5.248;2024-01-30T05:12:03;8.20;;;5.00;;
78891;SDS011;68368;51.728;5.248;2024-01-30T05:14:06;8.50;;;5.30;;
78891;SDS011;68368;51.728;5.248;2024-01-30T05:16:09;7.70;;;5.00;;
78891;SDS011;68368;51.728;5.248;2024-01-30T05:18:15;9.30;;;5.30;;
78891;SDS011;68368;51.728;5.248;2024-01-30T05:20:18;12.30;;;5.50;;
78891;SDS011;68368;51.728;5.248;2024-01-30T05:22:21;9.10;;;5.50;;
78891;SDS011;68368;51.728;5.248;2024-01-30T05:24:24;8.00;;;5.10;;
78891;SDS011;68368;51.728;5.248;2024-01-30T05:26:27;7.60;;;4.80;;
78891;SDS011;68368;51.728;5.248;2024-01-30T05:28:30;9.00;;;5.00;;
78891;SDS011;68368;51.728;5.248;2024-01-30T05:30:33;7.60;;;4.80;;
78891;SDS011;68368;51.728;5.248;2024-01-30T05:32:36;9.00;;;4.70;;
78891;SDS011;68368;51.728;5.248;2024-01-30T05:34:39;8.80;;;5.10;;
78891;SDS011;68368;51.728;5.248;2024-01-30T05:36:42;8.60;;;5.60;;
78891;SDS011;68368;51.728;5.248;2024-01-30T05:38:45;9.30;;;5.00;;
78891;SDS011;68368;51.728;5.248;2024-01-30T05:40:50;8.00;;;4.50;;
78891;SDS011;68368;51.728;5.248;2024-01-30T05:42:53;7.00;;;4.80;;
78891;SDS011;68368;51.728;5.248;2024-01-30T05:44:57;10.20;;;5.00;;
78891;SDS011;68368;51.728;5.248;2024-01-30T05:47:00;10.00;;;4.60;;
78891;SDS011;68368;51.728;5.248;2024-01-30T05:49:02;9.00;;;5.50;;
78891;SDS011;68368;51.728;5.248;2024-01-30T05:51:06;9.90;;;5.40;;
78891;SDS011;68368;51.728;5.248;2024-01-30T05:53:09;8.40;;;5.00;;
78891;SDS011;68368;51.728;5.248;2024-01-30T05:55:13;8.40;;;4.90;;
78891;SDS011;68368;51.728;5.248;2024-01-30T05:57:17;7.60;;;5.00;;
78891;SDS011;68368;51.728;5.248;2024-01-30T05:59:20;9.20;;;4.30;;
78891;SDS011;68368;51.728;5.248;2024-01-30T06:01:23;12.60;;;5.20;;
78891;SDS011;68368;51.728;5.248;2024-01-30T06:03:26;7.00;;;5.10;;
78891;SDS011;68368;51.728;5.248;2024-01-30T06:05:29;8.00;;;4.90;;
78891;SDS011;68368;51.728;5.248;2024-01-30T06:07:36;11.30;;;5.40;;
78891;SDS011;68368;51.728;5.248;2024-01-30T06:09:40;7.60;;;4.70;;
78891;SDS011;68368;51.728;5.248;2024-01-30T06:11:45;7.40;;;5.10;;
78891;SDS011;68368;51.728;5.248;2024-01-30T06:13:50;8.70;;;4.70;;
78891;SDS011;68368;51.728;5.248;2024-01-30T06:15:53;8.00;;;4.80;;
78891;SDS011;68368;51.728;5.248;2024-01-30T06:17:56;10.00;;;5.00;;
78891;SDS011;68368;51.728;5.248;2024-01-30T06:19:59;8.20;;;5.20;;
78891;SDS011;68368;51.728;5.248;2024-01-30T06:22:04;8.90;;;5.60;;
78891;SDS011;68368;51.728;5.248;2024-01-30T06:24:07;8.30;;;4.30;;
78891;SDS011;68368;51.728;5.248;2024-01-30T06:26:10;8.10;;;4.60;;
78891;SDS011;68368;51.728;5.248;2024-01-30T06:28:13;7.90;;;5.10;;
78891;SDS011;68368;51.728;5.248;2024-01-30T06:30:18;9.10;;;4.60;;
78891;SDS011;68368;51.728;5.248;2024-01-30T06:32:22;8.50;;;4.90;;
78891;SDS011;68368;51.728;5.248;2024-01-30T06:34:25;7.90;;;5.00;;
78891;SDS011;68368;51.728;5.248;2024-01-30T06:36:28;8.50;;;5.40;;
78891;SDS011;68368;51.728;5.248;2024-01-30T06:38:30;7.50;;;4.70;;
78891;SDS011;68368;51.728;5.248;2024-01-30T06:40:34;10.20;;;4.80;;
78891;SDS011;68368;51.728;5.248;2024-01-30T06:42:36;9.00;;;5.40;;
78891;SDS011;68368;51.728;5.248;2024-01-30T06:44:42;9.30;;;5.10;;
78891;SDS011;68368;51.728;5.248;2024-01-30T06:46:45;7.20;;;4.40;;
78891;SDS011;68368;51.728;5.248;2024-01-30T06:48:48;8.30;;;5.10;;
78891;SDS011;68368;51.728;5.248;2024-01-30T06:50:52;7.90;;;5.00;;
78891;SDS011;68368;51.728;5.248;2024-01-30T06:52:56;6.80;;;4.30;;
78891;SDS011;68368;51.728;5.248;2024-01-30T06:54:59;7.50;;;4.70;;
78891;SDS011;68368;51.728;5.248;2024-01-30T06:57:01;7.20;;;4.40;;
78891;SDS011;68368;51.728;5.248;2024-01-30T06:59:05;7.40;;;4.60;;
78891;SDS011;68368;51.728;5.248;2024-01-30T07:01:08;7.50;;;4.60;;
78891;SDS011;68368;51.728;5.248;2024-01-30T07:03:12;8.40;;;4.90;;
78891;SDS011;68368;51.728;5.248;2024-01-30T07:05:15;8.80;;;4.60;;
78891;SDS011;68368;51.728;5.248;2024-01-30T07:07:18;10.20;;;5.20;;
78891;SDS011;68368;51.728;5.248;2024-01-30T07:09:21;8.70;;;4.90;;
78891;SDS011;68368;51.728;5.248;2024-01-30T07:11:24;9.20;;;4.90;;
78891;SDS011;68368;51.728;5.248;2024-01-30T07:13:28;6.90;;;4.80;;
78891;SDS011;68368;51.728;5.248;2024-01-30T07:15:33;9.20;;;4.70;;
78891;SDS011;68368;51.728;5.248;2024-01-30T07:17:38;8.50;;;5.10;;
78891;SDS011;68368;51.728;5.248;2024-01-30T07:19:42;7.60;;;4.60;;
78891;SDS011;68368;51.728;5.248;2024-01-30T07:21:45;7.50;;;4.70;;
78891;SDS011;68368;51.728;5.248;2024-01-30T07:23:48;9.40;;;5.00;;
78891;SDS011;68368;51.728;5.248;2024-01-30T07:25:51;8.40;;;4.90;;
78891;SDS011;68368;51.728;5.248;2024-01-30T07:27:54;7.90;;;4.70;;
78891;SDS011;68368;51.728;5.248;2024-01-30T07:30:00;8.40;;;4.50;;
78891;SDS011;68368;51.728;5.248;2024-01-30T07:32:03;10.60;;;5.10;;
78891;SDS011;68368;51.728;5.248;2024-01-30T07:34:07;7.40;;;4.40;;
78891;SDS011;68368;51.728;5.248;2024-01-30T07:36:10;9.30;;;5.00;;
78891;SDS011;68368;51.728;5.248;2024-01-30T07:38:14;10.90;;;4.80;;
78891;SDS011;68368;51.728;5.248;2024-01-30T07:40:20;7.80;;;5.10;;
78891;SDS011;68368;51.728;5.248;2024-01-30T07:42:23;8.80;;;4.90;;
78891;SDS011;68368;51.728;5.248;2024-01-30T07:44:27;9.00;;;5.10;;
78891;SDS011;68368;51.728;5.248;2024-01-30T07:46:30;8.80;;;5.20;;
78891;SDS011;68368;51.728;5.248;2024-01-30T07:48:33;7.90;;;4.10;;
78891;SDS011;68368;51.728;5.248;2024-01-30T07:50:37;8.90;;;5.50;;
78891;SDS011;68368;51.728;5.248;2024-01-30T07:52:49;7.90;;;4.90;;
78891;SDS011;68368;51.728;5.248;2024-01-30T07:54:54;9.20;;;5.00;;
78891;SDS011;68368;51.728;5.248;2024-01-30T07:56:58;6.60;;;4.60;;
78891;SDS011;68368;51.728;5.248;2024-01-30T07:59:01;12.20;;;6.00;;
78891;SDS011;68368;51.728;5.248;2024-01-30T08:01:05;7.90;;;5.10;;
78891;SDS011;68368;51.728;5.248;2024-01-30T08:03:07;9.90;;;5.20;;
78891;SDS011;68368;51.728;5.248;2024-01-30T08:05:11;8.90;;;5.00;;
78891;SDS011;68368;51.728;5.248;2024-01-30T08:07:14;9.00;;;4.60;;
78891;SDS011;68368;51.728;5.248;2024-01-30T08:09:17;9.40;;;4.80;;
78891;SDS011;68368;51.728;5.248;2024-01-30T08:11:22;8.90;;;5.20;;
78891;SDS011;68368;51.728;5.248;2024-01-30T08:13:25;10.60;;;4.50;;
78891;SDS011;68368;51.728;5.248;2024-01-30T08:15:28;7.80;;;5.40;;
78891;SDS011;68368;51.728;5.248;2024-01-30T08:17:31;10.70;;;4.70;;
78891;SDS011;68368;51.728;5.248;2024-01-30T08:19:36;9.70;;;4.90;;
78891;SDS011;68368;51.728;5.248;2024-01-30T08:21:41;11.10;;;5.10;;
78891;SDS011;68368;51.728;5.248;2024-01-30T08:23:45;8.40;;;5.00;;
78891;SDS011;68368;51.728;5.248;2024-01-30T08:25:48;12.00;;;5.50;;
78891;SDS011;68368;51.728;5.248;2024-01-30T08:27:53;9.00;;;5.50;;
78891;SDS011;68368;51.728;5.248;2024-01-30T08:29:56;10.40;;;4.80;;
78891;SDS011;68368;51.728;5.248;2024-01-30T08:31:59;10.40;;;5.30;;
78891;SDS011;68368;51.728;5.248;2024-01-30T08:34:02;8.60;;;5.00;;
78891;SDS011;68368;51.728;5.248;2024-01-30T08:36:06;9.70;;;5.10;;
78891;SDS011;68368;51.728;5.248;2024-01-30T08:38:10;7.90;;;5.20;;
78891;SDS011;68368;51.728;5.248;2024-01-30T08:40:13;9.00;;;5.20;;
78891;SDS011;68368;51.728;5.248;2024-01-30T08:42:16;8.20;;;4.50;;
78891;SDS011;68368;51.728;5.248;2024-01-30T08:44:20;9.30;;;4.90;;
78891;SDS011;68368;51.728;5.248;2024-01-30T08:46:22;9.60;;;5.40;;
78891;SDS011;68368;51.728;5.248;2024-01-30T08:48:26;10.30;;;5.50;;
78891;SDS011;68368;51.728;5.248;2024-01-30T08:50:29;12.20;;;5.10;;
78891;SDS011;68368;51.728;5.248;2024-01-30T08:52:32;10.10;;;5.50;;
78891;SDS011;68368;51.728;5.248;2024-01-30T08:54:35;9.70;;;5.60;;
78891;SDS011;68368;51.728;5.248;2024-01-30T08:56:41;10.60;;;4.90;;
78891;SDS011;68368;51.728;5.248;2024-01-30T08:58:43;10.60;;;5.40;;
78891;SDS011;68368;51.728;5.248;2024-01-30T09:00:47;10.00;;;5.30;;
78891;SDS011;68368;51.728;5.248;2024-01-30T09:02:50;7.60;;;4.90;;
78891;SDS011;68368;51.728;5.248;2024-01-30T09:04:54;8.50;;;4.80;;
78891;SDS011;68368;51.728;5.248;2024-01-30T09:06:57;10.40;;;6.10;;
78891;SDS011;68368;51.728;5.248;2024-01-30T09:09:02;10.40;;;5.00;;
78891;SDS011;68368;51.728;5.248;2024-01-30T09:11:10;10.90;;;5.40;;
78891;SDS011;68368;51.728;5.248;2024-01-30T09:13:14;11.10;;;5.00;;
78891;SDS011;68368;51.728;5.248;2024-01-30T09:15:17;7.90;;;4.60;;
78891;SDS011;68368;51.728;5.248;2024-01-30T09:17:21;9.30;;;4.50;;
78891;SDS011;68368;51.728;5.248;2024-01-30T09:19:26;7.20;;;4.30;;
78891;SDS011;68368;51.728;5.248;2024-01-30T09:21:29;8.80;;;4.90;;
78891;SDS011;68368;51.728;5.248;2024-01-30T09:23:32;10.80;;;5.80;;
78891;SDS011;68368;51.728;5.248;2024-01-30T09:25:36;10.70;;;5.50;;
78891;SDS011;68368;51.728;5.248;2024-01-30T09:27:40;9.90;;;5.20;;
78891;SDS011;68368;51.728;5.248;2024-01-30T09:29:42;10.00;;;5.20;;
78891;SDS011;68368;51.728;5.248;2024-01-30T09:31:47;10.20;;;5.50;;
78891;SDS011;68368;51.728;5.248;2024-01-30T09:33:50;9.30;;;5.10;;
78891;SDS011;68368;51.728;5.248;2024-01-30T09:35:53;8.40;;;5.00;;
78891;SDS011;68368;51.728;5.248;2024-01-30T09:37:56;8.80;;;4.70;;
78891;SDS011;68368;51.728;5.248;2024-01-30T09:39:59;9.00;;;5.10;;
78891;SDS011;68368;51.728;5.248;2024-01-30T09:42:05;8.70;;;5.10;;
78891;SDS011;68368;51.728;5.248;2024-01-30T09:44:14;12.80;;;6.00;;
78891;SDS011;68368;51.728;5.248;2024-01-30T09:46:18;9.60;;;5.10;;
78891;SDS011;68368;51.728;5.248;2024-01-30T09:48:25;10.50;;;5.50;;
78891;SDS011;68368;51.728;5.248;2024-01-30T09:50:29;8.80;;;4.70;;
78891;SDS011;68368;51.728;5.248;2024-01-30T09:52:32;10.40;;;5.80;;
78891;SDS011;68368;51.728;5.248;2024-01-30T09:54:36;7.90;;;5.80;;
78891;SDS011;68368;51.728;5.248;2024-01-30T09:56:41;9.90;;;5.10;;
78891;SDS011;68368;51.728;5.248;2024-01-30T09:58:44;9.40;;;5.20;;
78891;SDS011;68368;51.728;5.248;2024-01-30T10:00:49;9.70;;;5.70;;
78891;SDS011;68368;51.728;5.248;2024-01-30T10:02:52;11.20;;;5.60;;
78891;SDS011;68368;51.728;5.248;2024-01-30T10:04:58;12.30;;;5.20;;
78891;SDS011;68368;51.728;5.248;2024-01-30T10:07:03;8.60;;;5.00;;
78891;SDS011;68368;51.728;5.248;2024-01-30T10:09:07;10.10;;;5.50;;
78891;SDS011;68368;51.728;5.248;2024-01-30T10:11:10;11.10;;;5.40;;
78891;SDS011;68368;51.728;5.248;2024-01-30T10:13:14;12.30;;;5.30;;
78891;SDS011;68368;51.728;5.248;2024-01-30T10:15:20;9.20;;;5.80;;
78891;SDS011;68368;51.728;5.248;2024-01-30T10:17:25;9.10;;;5.60;;
78891;SDS011;68368;51.728;5.248;2024-01-30T10:19:31;11.20;;;6.00;;
78891;SDS011;68368;51.728;5.248;2024-01-30T10:21:34;9.70;;;5.90;;
78891;SDS011;68368;51.728;5.248;2024-01-30T10:23:38;8.60;;;5.90;;
78891;SDS011;68368;51.728;5.248;2024-01-30T10:25:41;9.70;;;5.50;;
78891;SDS011;68368;51.728;5.248;2024-01-30T10:27:44;10.00;;;5.40;;
78891;SDS011;68368;51.728;5.248;2024-01-30T10:29:50;12.20;;;5.50;;
78891;SDS011;68368;51.728;5.248;2024-01-30T10:32:01;14.30;;;6.20;;
78891;SDS011;68368;51.728;5.248;2024-01-30T10:34:05;10.20;;;5.20;;
78891;SDS011;68368;51.728;5.248;2024-01-30T10:36:09;10.70;;;5.50;;
78891;SDS011;68368;51.728;5.248;2024-01-30T10:38:15;11.30;;;5.10;;
78891;SDS011;68368;51.728;5.248;2024-01-30T10:40:21;11.50;;;5.90;;
78891;SDS011;68368;51.728;5.248;2024-01-30T10:42:30;10.40;;;5.70;;
78891;SDS011;68368;51.728;5.248;2024-01-30T10:44:39;9.50;;;5.40;;
78891;SDS011;68368;51.728;5.248;2024-01-30T10:46:56;9.50;;;5.60;;
78891;SDS011;68368;51.728;5.248;2024-01-30T10:49:05;10.80;;;5.50;;
78891;SDS011;68368;51.728;5.248;2024-01-30T10:51:11;11.30;;;5.60;;
78891;SDS011;68368;51.728;5.248;2024-01-30T10:53:16;7.10;;;5.00;;
78891;SDS011;68368;51.728;5.248;2024-01-30T10:55:21;12.00;;;5.80;;
78891;SDS011;68368;51.728;5.248;2024-01-30T10:57:25;9.00;;;5.10;;
78891;SDS011;68368;51.728;5.248;2024-01-30T10:59:29;8.40;;;5.10;;
78891;SDS011;68368;51.728;5.248;2024-01-30T11:01:36;9.50;;;5.20;;
78891;SDS011;68368;51.728;5.248;2024-01-30T11:03:40;9.40;;;5.10;;
78891;SDS011;68368;51.728;5.248;2024-01-30T11:05:48;8.70;;;5.40;;
78891;SDS011;68368;51.728;5.248;2024-01-30T11:07:52;11.20;;;5.50;;
78891;SDS011;68368;51.728;5.248;2024-01-30T11:10:01;9.10;;;5.90;;
78891;SDS011;68368;51.728;5.248;2024-01-30T11:12:06;8.70;;;5.40;;
78891;SDS011;68368;51.728;5.248;2024-01-30T11:14:23;8.50;;;5.40;;
78891;SDS011;68368;51.728;5.248;2024-01-30T11:16:32;8.00;;;5.60;;
78891;SDS011;68368;51.728;5.248;2024-01-30T11:18:36;13.90;;;6.20;;
78891;SDS011;68368;51.728;5.248;2024-01-30T11:20:39;9.40;;;5.40;;
78891;SDS011;68368;51.728;5.248;2024-01-30T11:22:52;7.40;;;4.50;;
78891;SDS011;68368;51.728;5.248;2024-01-30T11:24:57;7.30;;;5.00;;
78891;SDS011;68368;51.728;5.248;2024-01-30T11:27:02;10.90;;;4.10;;
78891;SDS011;68368;51.728;5.248;2024-01-30T11:29:09;6.30;;;3.90;;
78891;SDS011;68368;51.728;5.248;2024-01-30T11:31:19;6.50;;;3.80;;
78891;SDS011;68368;51.728;5.248;2024-01-30T11:33:39;7.30;;;3.80;;
78891;SDS011;68368;51.728;5.248;2024-01-30T11:35:43;5.30;;;3.60;;
78891;SDS011;68368;51.728;5.248;2024-01-30T11:37:46;7.70;;;4.10;;
78891;SDS011;68368;51.728;5.248;2024-01-30T11:39:50;4.90;;;3.20;;
78891;SDS011;68368;51.728;5.248;2024-01-30T11:41:55;5.80;;;2.90;;
78891;SDS011;68368;51.728;5.248;2024-01-30T11:43:58;4.20;;;2.30;;
78891;SDS011;68368;51.728;5.248;2024-01-30T11:46:01;6.50;;;2.60;;
78891;SDS011;68368;51.728;5.248;2024-01-30T11:48:09;5.10;;;2.10;;
78891;SDS011;68368;51.728;5.248;2024-01-30T11:50:15;2.90;;;1.60;;
78891;SDS011;68368;51.728;5.248;2024-01-30T11:52:19;4.70;;;1.70;;
78891;SDS011;68368;51.728;5.248;2024-01-30T11:54:22;6.30;;;1.90;;
78891;SDS011;68368;51.728;5.248;2024-01-30T11:56:26;4.30;;;1.80;;
78891;SDS011;68368;51.728;5.248;2024-01-30T11:58:29;4.40;;;1.60;;
78891;SDS011;68368;51.728;5.248;2024-01-30T12:00:33;3.60;;;1.10;;
78891;SDS011;68368;51.728;5.248;2024-01-30T12:02:36;4.60;;;1.30;;
78891;SDS011;68368;51.728;5.248;2024-01-30T12:04:39;5.40;;;1.20;;
78891;SDS011;68368;51.728;5.248;2024-01-30T12:06:42;3.70;;;1.60;;
78891;SDS011;68368;51.728;5.248;2024-01-30T12:08:57;4.60;;;1.30;;
78891;SDS011;68368;51.728;5.248;2024-01-30T12:11:01;3.90;;;1.10;;
78891;SDS011;68368;51.728;5.248;2024-01-30T12:13:07;5.80;;;1.40;;
78891;SDS011;68368;51.728;5.248;2024-01-30T12:15:10;3.80;;;1.00;;
78891;SDS011;68368;51.728;5.248;2024-01-30T12:17:25;3.30;;;1.20;;
78891;SDS011;68368;51.728;5.248;2024-01-30T12:19:31;2.30;;;1.00;;
78891;SDS011;68368;51.728;5.248;2024-01-30T12:21:34;2.20;;;0.80;;